Golva, North Dakota
Current Conditions -  °F | °C
As of 11:51 AM on Monday 20 Oct 2014 (Local Time) from KBHK Reporting Station
Clear Clear  
Wind Chill: 70°   Ceiling: Unl
Heat Index: 70°   Visibility: 10mi
Dew Point: 41°   Wind: 16mph
Humidity: 35%   Direction: 170°S
Pressure: 29.96"   Gusts: NA
Location:  46.73°N, 103.99°W
Report Text: KBHK 201751Z AUTO 17014KT 10SM CLR 21/05 A2996 RMK AO2 SLP138 T02110050 10211 20050 58005
Loading
Personal Weather Stations






























Interactive Weather Map
Tropical Storm Tracking
New forecast layout! Learn more

10-Day Weather Forecast

Advertisements
Track Severe Weather on mobile